createdAt,value
2022-10-28T00:01:33.495Z,19.32
2022-10-28T00:04:03.065Z,19.31
2022-10-28T00:06:34.463Z,19.31
2022-10-28T00:09:05.639Z,19.24
2022-10-28T00:11:36.881Z,19.24
2022-10-28T00:14:07.651Z,19.24
2022-10-28T00:16:38.096Z,19.14
2022-10-28T00:19:08.796Z,19.02
2022-10-28T00:21:40.688Z,18.87
2022-10-28T00:24:10.630Z,18.64
2022-10-28T00:26:42.262Z,18.36
2022-10-28T00:29:13.081Z,18.19
2022-10-28T00:31:42.975Z,18.21
2022-10-28T00:34:13.752Z,18.30
2022-10-28T00:36:45.230Z,18.34
2022-10-28T00:39:15.671Z,18.34
2022-10-28T00:41:46.095Z,18.45
2022-10-28T00:44:49.181Z,18.37
2022-10-28T00:47:25.889Z,18.29
2022-10-28T00:50:06.637Z,18.30
2022-10-28T00:52:36.819Z,18.36
2022-10-28T00:55:06.536Z,18.35
2022-10-28T00:57:38.805Z,18.40
2022-10-28T01:00:09.372Z,18.31
2022-10-28T01:02:47.684Z,18.20
2022-10-28T01:05:20.416Z,18.27
2022-10-28T01:07:52.600Z,18.37
2022-10-28T01:10:28.202Z,18.29
2022-10-28T01:13:12.200Z,18.39
2022-10-28T01:15:49.876Z,18.38
2022-10-28T01:18:26.944Z,18.35
2022-10-28T01:21:30.091Z,18.36
2022-10-28T01:24:11.832Z,18.29
2022-10-28T01:27:05.846Z,18.38
2022-10-28T01:29:50.092Z,18.26
2022-10-28T01:32:31.922Z,18.35
2022-10-28T01:35:11.571Z,18.40
2022-10-28T01:37:50.491Z,18.43
2022-10-28T01:40:25.870Z,18.48
2022-10-28T01:43:00.584Z,18.51
2022-10-28T01:45:36.555Z,18.59
2022-10-28T01:48:11.801Z,18.45
2022-10-28T01:50:45.663Z,18.46
2022-10-28T01:53:20.621Z,18.48
2022-10-28T01:55:52.861Z,18.51
2022-10-28T01:58:28.009Z,18.58
2022-10-28T02:00:57.814Z,18.56
2022-10-28T02:03:29.954Z,18.45
2022-10-28T02:06:01.731Z,18.48
2022-10-28T02:08:45.031Z,18.54
2022-10-28T02:11:26.577Z,18.59
2022-10-28T02:14:03.631Z,18.64
2022-10-28T02:16:41.355Z,18.63
2022-10-28T02:19:19.708Z,18.65
2022-10-28T02:21:57.349Z,18.62
2022-10-28T02:24:39.865Z,18.66
2022-10-28T02:27:13.945Z,18.59
2022-10-28T02:29:50.393Z,18.65
2022-10-28T02:32:22.138Z,18.67
2022-10-28T02:34:57.470Z,18.69
2022-10-28T02:37:31.144Z,18.56
2022-10-28T02:40:03.591Z,18.47
2022-10-28T02:42:36.185Z,18.53
2022-10-28T02:45:11.166Z,18.54
2022-10-28T02:47:45.057Z,18.57
2022-10-28T02:50:19.974Z,18.65
2022-10-28T02:52:53.012Z,18.68
2022-10-28T02:55:25.354Z,18.65
2022-10-28T02:57:54.288Z,18.64
2022-10-28T03:00:25.029Z,18.64
2022-10-28T03:02:53.429Z,18.62
2022-10-28T03:05:23.450Z,18.60
2022-10-28T03:07:52.006Z,18.57
2022-10-28T03:10:21.008Z,18.58
2022-10-28T03:12:49.911Z,18.60
2022-10-28T03:15:18.775Z,18.57
2022-10-28T03:17:47.649Z,18.55
2022-10-28T03:20:16.599Z,18.55
2022-10-28T03:22:46.549Z,18.55
2022-10-28T03:25:15.368Z,18.56
2022-10-28T03:27:43.856Z,18.48
2022-10-28T03:30:14.519Z,18.44
2022-10-28T03:32:43.439Z,18.48
2022-10-28T03:35:12.201Z,18.48
2022-10-28T03:37:43.397Z,18.51
2022-10-28T03:40:14.337Z,18.54
2022-10-28T03:42:43.113Z,18.52
2022-10-28T03:45:12.595Z,18.53
2022-10-28T03:47:41.421Z,18.51
2022-10-28T03:50:10.798Z,18.47
2022-10-28T03:52:39.379Z,18.48
2022-10-28T03:55:08.788Z,18.46
2022-10-28T03:57:38.702Z,18.43
2022-10-28T04:00:08.574Z,18.40
2022-10-28T04:02:42.750Z,18.39
2022-10-28T04:05:11.406Z,18.37
2022-10-28T04:07:39.713Z,18.34
2022-10-28T04:10:09.128Z,18.31
2022-10-28T04:12:38.934Z,18.29
2022-10-28T04:15:08.572Z,18.28
2022-10-28T04:17:37.181Z,18.27
2022-10-28T04:20:06.794Z,18.26
2022-10-28T04:22:35.170Z,18.26
2022-10-28T04:25:04.226Z,18.25
2022-10-28T04:27:32.729Z,18.22
2022-10-28T04:30:02.798Z,18.22
2022-10-28T04:32:31.407Z,18.22
2022-10-28T04:35:00.032Z,18.18
2022-10-28T04:37:28.455Z,18.14
2022-10-28T04:39:57.111Z,18.14
2022-10-28T04:42:25.803Z,18.08
2022-10-28T04:44:54.504Z,18.07
2022-10-28T04:47:24.322Z,18.05
2022-10-28T04:49:52.951Z,18.03
2022-10-28T04:52:21.419Z,18.04
2022-10-28T04:54:50.144Z,18.03
2022-10-28T04:57:18.996Z,18.02
2022-10-28T04:59:47.741Z,18.03
2022-10-28T05:02:16.233Z,18.01
2022-10-28T05:04:46.386Z,17.92
2022-10-28T05:07:15.940Z,17.91
2022-10-28T05:09:46.414Z,17.93
2022-10-28T05:12:15.023Z,17.94
2022-10-28T05:14:43.841Z,17.96
2022-10-28T05:17:12.853Z,17.96
2022-10-28T05:19:42.226Z,17.98
2022-10-28T05:22:12.289Z,18.02
2022-10-28T05:24:40.960Z,17.99
2022-10-28T05:27:09.462Z,18.01
2022-10-28T05:29:38.130Z,18.03
2022-10-28T05:32:06.502Z,18.05
2022-10-28T05:34:36.229Z,18.05
2022-10-28T05:37:04.872Z,18.06
2022-10-28T05:39:34.942Z,18.10
2022-10-28T05:42:03.382Z,18.10
2022-10-28T05:44:32.437Z,18.10
2022-10-28T05:47:00.964Z,18.09
2022-10-28T05:49:29.935Z,18.11
2022-10-28T05:51:58.830Z,18.12
2022-10-28T05:54:27.832Z,18.16
2022-10-28T05:56:57.832Z,18.18
2022-10-28T05:59:26.537Z,18.22
2022-10-28T06:01:55.748Z,18.26
2022-10-28T06:04:24.675Z,18.23
2022-10-28T06:06:55.968Z,18.28
2022-10-28T06:09:24.656Z,18.31
2022-10-28T06:11:51.598Z,18.31
2022-10-28T06:14:21.619Z,18.37
2022-10-28T06:16:50.023Z,18.44
2022-10-28T06:19:18.657Z,18.49
2022-10-28T06:21:47.064Z,18.56
2022-10-28T06:24:16.022Z,18.61
2022-10-28T06:26:44.522Z,18.70
2022-10-28T06:29:13.167Z,18.76
2022-10-28T06:31:43.020Z,18.83
2022-10-28T06:34:12.384Z,18.90
2022-10-28T06:36:40.825Z,19.00
2022-10-28T06:39:09.986Z,19.08
2022-10-28T06:41:38.574Z,19.16
2022-10-28T06:44:07.220Z,19.15
2022-10-28T06:46:37.770Z,19.19
2022-10-28T06:49:09.181Z,19.28
2022-10-28T06:51:37.684Z,19.29
2022-10-28T06:54:06.606Z,19.41
2022-10-28T06:56:35.118Z,19.48
2022-10-28T06:59:03.915Z,19.53
2022-10-28T07:01:32.391Z,19.63
2022-10-28T07:04:01.595Z,19.69
2022-10-28T07:06:31.629Z,19.80
2022-10-28T07:09:00.034Z,19.93
2022-10-28T07:11:29.311Z,20.05
2022-10-28T07:13:57.751Z,20.14
2022-10-28T07:16:26.363Z,20.25
2022-10-28T07:18:54.758Z,20.29
2022-10-28T07:21:28.360Z,20.43
2022-10-28T07:23:58.319Z,20.53
2022-10-28T07:26:27.829Z,20.63
2022-10-28T07:28:56.415Z,20.68
2022-10-28T07:31:25.102Z,20.72
2022-10-28T07:33:56.864Z,20.77
2022-10-28T07:36:25.698Z,20.81
2022-10-28T07:38:54.945Z,20.86
2022-10-28T07:41:25.318Z,20.96
2022-10-28T07:43:53.813Z,21.00
2022-10-28T07:46:22.425Z,21.09
2022-10-28T07:48:50.801Z,21.21
2022-10-28T07:51:19.393Z,21.35
2022-10-28T07:53:48.355Z,21.40
2022-10-28T07:56:17.027Z,21.52
2022-10-28T07:58:46.834Z,21.65
2022-10-28T08:01:18.673Z,21.75
2022-10-28T08:03:48.507Z,21.76
2022-10-28T08:06:19.781Z,21.82
2022-10-28T08:08:50.010Z,21.84
2022-10-28T08:11:22.596Z,21.93
2022-10-28T08:13:53.686Z,22.06
2022-10-28T08:16:22.624Z,22.11
2022-10-28T08:18:53.133Z,22.20
2022-10-28T08:21:21.762Z,22.27
2022-10-28T08:23:50.326Z,22.36
2022-10-28T08:26:19.099Z,22.38
2022-10-28T08:28:47.480Z,22.45
2022-10-28T08:31:17.474Z,22.45
2022-10-28T08:33:46.316Z,22.51
2022-10-28T08:36:17.470Z,22.61
2022-10-28T08:38:46.855Z,22.68
2022-10-28T08:41:25.821Z,22.75
2022-10-28T08:44:09.405Z,22.82
2022-10-28T08:46:55.744Z,22.05
2022-10-28T08:49:25.455Z,22.21
2022-10-28T08:51:58.337Z,22.38
2022-10-28T08:54:33.409Z,22.50
2022-10-28T08:57:06.979Z,22.61
2022-10-28T08:59:40.085Z,22.66
2022-10-28T09:02:22.512Z,22.77
2022-10-28T09:04:56.201Z,22.85
2022-10-28T09:07:26.434Z,23.01
2022-10-28T09:09:57.087Z,23.09
2022-10-28T09:12:39.997Z,23.21
2022-10-28T09:15:24.133Z,23.28
2022-10-28T09:18:01.775Z,23.27
2022-10-28T09:20:43.811Z,23.24
2022-10-28T09:23:21.992Z,23.20
2022-10-28T09:26:01.073Z,23.21
2022-10-28T09:28:42.797Z,23.28
2022-10-28T09:31:19.917Z,23.26
2022-10-28T09:34:03.302Z,23.27
2022-10-28T09:36:37.406Z,23.37
2022-10-28T09:39:08.422Z,23.39
2022-10-28T09:41:40.518Z,23.42
2022-10-28T09:44:16.998Z,23.51
2022-10-28T09:46:48.051Z,23.35
2022-10-28T09:49:22.024Z,23.48
2022-10-28T09:51:56.859Z,23.52
2022-10-28T09:54:33.685Z,23.55
2022-10-28T09:57:04.141Z,23.52
2022-10-28T09:59:33.431Z,23.61
2022-10-28T10:02:02.145Z,23.71
2022-10-28T10:04:32.890Z,23.71
2022-10-28T10:07:09.543Z,23.79
2022-10-28T10:09:40.229Z,23.83
2022-10-28T10:12:11.094Z,23.89
2022-10-28T10:14:44.762Z,24.00
2022-10-28T10:17:17.848Z,24.02
2022-10-28T10:20:15.551Z,24.24
2022-10-28T10:22:45.383Z,24.18
2022-10-28T10:25:26.406Z,24.30
2022-10-28T10:27:58.543Z,24.26
2022-10-28T10:30:32.417Z,24.40
2022-10-28T10:33:02.453Z,24.32
2022-10-28T10:35:34.737Z,24.46
2022-10-28T10:38:06.103Z,24.50
2022-10-28T10:40:36.426Z,24.48
2022-10-28T10:43:22.734Z,24.59
2022-10-28T10:46:01.300Z,24.66
2022-10-28T10:48:32.267Z,24.58
2022-10-28T10:51:07.821Z,24.80
2022-10-28T10:53:37.911Z,24.87
2022-10-28T10:56:10.782Z,24.98
2022-10-28T10:58:48.285Z,24.92
2022-10-28T11:01:22.779Z,25.08
2022-10-28T11:03:56.006Z,25.23
2022-10-28T11:06:31.421Z,25.20
2022-10-28T11:09:02.804Z,25.33
2022-10-28T11:11:36.794Z,25.50
2022-10-28T11:14:08.635Z,25.42
2022-10-28T11:16:50.581Z,25.32
2022-10-28T11:19:22.958Z,25.35
2022-10-28T11:22:04.281Z,25.29
2022-10-28T11:24:49.581Z,25.51
2022-10-28T11:27:35.357Z,25.63
2022-10-28T11:30:04.781Z,25.66
2022-10-28T11:33:07.931Z,24.94
2022-10-28T11:35:58.390Z,25.18
2022-10-28T11:38:55.873Z,25.22
2022-10-28T11:41:36.602Z,24.82
2022-10-28T11:44:19.715Z,25.01
2022-10-28T11:47:04.189Z,25.04
2022-10-28T11:49:50.937Z,24.93
2022-10-28T11:52:32.783Z,24.94
2022-10-28T11:55:17.313Z,24.95
2022-10-28T11:57:57.803Z,24.97
2022-10-28T12:00:43.079Z,24.96
2022-10-28T12:03:44.915Z,24.98
2022-10-28T12:06:21.674Z,24.99
2022-10-28T12:14:32.542Z,24.77
2022-10-28T12:17:12.967Z,24.71
2022-10-28T12:19:47.019Z,24.76
2022-10-28T12:22:23.391Z,24.74
2022-10-28T12:24:53.738Z,24.60
2022-10-28T12:27:29.445Z,24.64
2022-10-28T12:30:04.332Z,24.67
2022-10-28T12:32:37.257Z,24.46
2022-10-28T12:35:15.490Z,24.58
2022-10-28T12:37:50.501Z,24.62
2022-10-28T12:40:23.213Z,24.58
2022-10-28T12:42:57.358Z,24.65
2022-10-28T12:45:26.523Z,24.60
2022-10-28T12:48:01.225Z,24.58
2022-10-28T12:50:35.618Z,24.61
2022-10-28T12:53:25.475Z,24.70
2022-10-28T12:55:58.678Z,24.61
2022-10-28T12:58:33.694Z,24.55
2022-10-28T13:01:08.840Z,24.09
2022-10-28T13:03:37.931Z,24.28
2022-10-28T13:06:30.553Z,24.43
2022-10-28T13:09:36.346Z,24.22
2022-10-28T13:12:55.257Z,24.35
2022-10-28T13:15:49.257Z,24.33
2022-10-28T13:18:45.231Z,24.31
2022-10-28T13:21:26.745Z,24.21
2022-10-28T13:24:04.977Z,24.22
2022-10-28T13:26:36.404Z,24.24
2022-10-28T13:29:08.203Z,24.31
2022-10-28T13:31:41.071Z,24.25
2022-10-28T13:34:12.588Z,24.26
2022-10-28T13:36:43.643Z,24.27
2022-10-28T13:39:25.485Z,24.22
2022-10-28T13:42:46.061Z,24.23
2022-10-28T13:45:49.136Z,24.20
2022-10-28T13:48:49.291Z,24.21
2022-10-28T13:51:47.077Z,24.09
2022-10-28T13:54:27.060Z,24.06
2022-10-28T13:57:03.103Z,23.99
2022-10-28T13:59:48.536Z,24.01
2022-10-28T14:02:34.950Z,24.01
2022-10-28T14:05:13.869Z,23.92
2022-10-28T14:07:54.225Z,23.94
2022-10-28T14:10:26.571Z,23.85
2022-10-28T14:12:57.599Z,23.87
2022-10-28T14:15:30.348Z,23.89
2022-10-28T14:18:10.458Z,23.75
2022-10-28T14:21:01.651Z,23.76
2022-10-28T14:24:08.094Z,23.80
2022-10-28T14:27:19.592Z,23.79
2022-10-28T14:29:50.150Z,23.73
2022-10-28T14:32:42.814Z,23.77
2022-10-28T14:35:26.661Z,23.67
2022-10-28T14:38:19.228Z,23.62
2022-10-28T14:40:51.722Z,23.49
2022-10-28T14:43:54.839Z,23.62
2022-10-28T14:46:42.678Z,23.54
2022-10-28T14:49:21.489Z,23.48
2022-10-28T14:51:51.634Z,23.35
2022-10-28T14:54:28.424Z,23.41
2022-10-28T14:56:57.800Z,23.32
2022-10-28T14:59:28.909Z,23.23
2022-10-28T15:02:03.256Z,23.23
2022-10-28T15:04:32.717Z,23.21
2022-10-28T15:07:01.318Z,23.12
2022-10-28T15:09:34.914Z,23.12
2022-10-28T15:12:07.087Z,23.07
2022-10-28T15:14:38.325Z,23.09
2022-10-28T15:17:16.348Z,23.12
2022-10-28T15:19:46.434Z,23.03
2022-10-28T15:22:19.213Z,23.00
2022-10-28T15:25:00.684Z,23.00
2022-10-28T15:27:32.851Z,22.84
2022-10-28T15:30:03.058Z,22.78
2022-10-28T15:32:33.618Z,22.70
2022-10-28T15:35:38.266Z,22.68
2022-10-28T15:38:34.103Z,22.64
2022-10-28T15:41:22.539Z,22.54
2022-10-28T15:43:56.594Z,22.54
2022-10-28T15:46:25.996Z,22.49
2022-10-28T15:48:58.976Z,22.48
2022-10-28T15:51:28.104Z,22.50
2022-10-28T15:54:11.880Z,22.54
2022-10-28T15:56:56.678Z,22.53
2022-10-28T15:59:26.767Z,22.43
2022-10-28T16:01:56.284Z,22.39
2022-10-28T16:04:44.990Z,22.45
2022-10-28T16:07:13.757Z,22.34
2022-10-28T16:09:47.644Z,22.31
2022-10-28T16:12:21.610Z,22.29
2022-10-28T16:14:56.104Z,22.28
2022-10-28T16:17:27.473Z,22.19
2022-10-28T16:19:58.626Z,22.17
2022-10-28T16:22:29.275Z,22.02
2022-10-28T16:24:57.988Z,21.98
2022-10-28T16:27:31.405Z,21.91
2022-10-28T16:30:00.190Z,21.83
2022-10-28T16:32:34.923Z,21.82
2022-10-28T16:35:05.145Z,21.78
2022-10-28T16:37:36.761Z,21.72
2022-10-28T16:40:24.849Z,21.67
2022-10-28T16:42:58.647Z,21.67
2022-10-28T16:45:27.010Z,21.62
2022-10-28T16:47:55.870Z,21.52
2022-10-28T16:50:24.545Z,21.40
2022-10-28T16:52:54.360Z,21.39
2022-10-28T16:55:22.813Z,21.35
2022-10-28T16:57:51.584Z,21.35
2022-10-28T17:00:21.986Z,21.38
2022-10-28T17:02:51.011Z,21.32
2022-10-28T17:05:21.385Z,21.33
2022-10-28T17:07:50.359Z,21.28
2022-10-28T17:10:18.962Z,21.23
2022-10-28T17:12:47.655Z,21.12
2022-10-28T17:15:16.517Z,21.16
2022-10-28T17:17:50.164Z,21.12
2022-10-28T17:20:19.250Z,21.11
2022-10-28T17:22:47.841Z,21.07
2022-10-28T17:25:16.383Z,21.06
2022-10-28T17:27:48.330Z,20.99
2022-10-28T17:30:18.376Z,21.00
2022-10-28T17:32:51.400Z,20.94
2022-10-28T17:35:20.596Z,20.95
2022-10-28T17:37:49.893Z,20.88
2022-10-28T17:40:18.531Z,20.85
2022-10-28T17:42:47.088Z,20.84
2022-10-28T17:45:18.049Z,20.83
2022-10-28T17:47:51.165Z,20.82
2022-10-28T17:50:19.623Z,20.77
2022-10-28T17:52:48.221Z,20.79
2022-10-28T17:55:16.775Z,20.75
2022-10-28T17:57:45.712Z,20.74
2022-10-28T18:00:15.528Z,20.73
2022-10-28T18:02:44.254Z,20.71
2022-10-28T18:05:14.070Z,20.63
2022-10-28T18:07:42.784Z,20.58
2022-10-28T18:10:11.370Z,20.54
2022-10-28T18:12:39.988Z,20.49
2022-10-28T18:15:09.633Z,20.48
2022-10-28T18:17:38.547Z,20.49
2022-10-28T18:20:08.121Z,20.49
2022-10-28T18:22:38.292Z,20.45
2022-10-28T18:25:08.025Z,20.39
2022-10-28T18:27:37.094Z,20.27
2022-10-28T18:30:06.578Z,20.23
2022-10-28T18:32:35.166Z,20.20
2022-10-28T18:35:03.532Z,20.07
2022-10-28T18:37:32.521Z,20.10
2022-10-28T18:40:02.259Z,20.04
2022-10-28T18:42:30.814Z,20.03
2022-10-28T18:44:59.107Z,20.02
2022-10-28T18:47:27.712Z,19.96
2022-10-28T18:49:56.043Z,19.97
2022-10-28T18:52:24.763Z,19.99
2022-10-28T18:54:53.172Z,19.92
2022-10-28T18:57:23.204Z,19.91
2022-10-28T19:00:17.348Z,19.77
2022-10-28T19:02:44.821Z,19.70
2022-10-28T19:05:16.317Z,19.74
2022-10-28T19:07:44.950Z,19.76
2022-10-28T19:10:13.557Z,19.75
2022-10-28T19:12:45.903Z,19.78
2022-10-28T19:15:16.976Z,19.83
2022-10-28T19:17:45.272Z,19.79
2022-10-28T19:20:13.941Z,19.82
2022-10-28T19:22:42.358Z,19.81
2022-10-28T19:25:11.012Z,19.81
2022-10-28T19:27:39.629Z,19.83
2022-10-28T19:30:13.520Z,19.78
2022-10-28T19:32:42.808Z,19.79
2022-10-28T19:35:11.255Z,19.72
2022-10-28T19:37:39.786Z,19.70
2022-10-28T19:40:09.283Z,19.66
2022-10-28T19:42:38.991Z,19.62
2022-10-28T19:45:10.683Z,19.62
2022-10-28T19:47:39.295Z,19.55
2022-10-28T19:50:08.951Z,19.60
2022-10-28T19:52:37.584Z,19.58
2022-10-28T19:55:08.736Z,19.57
2022-10-28T19:57:39.608Z,19.58
2022-10-28T20:00:11.585Z,19.56
2022-10-28T20:02:40.270Z,19.54
2022-10-28T20:05:09.387Z,19.54
2022-10-28T20:07:37.895Z,19.58
2022-10-28T20:10:06.956Z,19.57
2022-10-28T20:12:35.550Z,19.53
2022-10-28T20:15:04.411Z,19.56
2022-10-28T20:17:34.359Z,19.56
2022-10-28T20:20:02.669Z,19.54
2022-10-28T20:22:31.239Z,19.52
2022-10-28T20:25:01.817Z,19.53
2022-10-28T20:27:30.610Z,19.56
2022-10-28T20:29:59.787Z,19.59
2022-10-28T20:32:28.543Z,19.55
2022-10-28T20:34:58.543Z,19.54
2022-10-28T20:37:26.999Z,19.57
2022-10-28T20:39:57.773Z,19.60
2022-10-28T20:42:27.804Z,19.55
2022-10-28T20:44:56.380Z,19.54
2022-10-28T20:47:24.847Z,19.50
2022-10-28T20:49:54.111Z,19.49
2022-10-28T20:54:53.436Z,19.51
2022-10-28T20:57:21.757Z,19.52
2022-10-28T20:59:51.664Z,19.52
2022-10-28T21:02:20.288Z,19.51
2022-10-28T21:04:49.294Z,19.48
2022-10-28T21:07:17.714Z,19.42
2022-10-28T21:09:47.702Z,19.38
2022-10-28T21:12:16.070Z,19.33
2022-10-28T21:14:44.688Z,19.27
2022-10-28T21:17:12.964Z,19.13
2022-10-28T21:19:41.507Z,19.07
2022-10-28T21:22:09.861Z,19.01
2022-10-28T21:24:38.439Z,18.97
2022-10-28T21:27:08.431Z,18.97
2022-10-28T21:29:36.979Z,18.97
2022-10-28T21:32:06.292Z,18.98
2022-10-28T21:34:34.880Z,18.97
2022-10-28T21:37:03.244Z,18.94
2022-10-28T21:39:31.855Z,18.86
2022-10-28T21:42:00.185Z,18.81
2022-10-28T21:44:30.181Z,18.78
2022-10-28T21:46:58.875Z,18.77
2022-10-28T21:49:27.407Z,18.78
2022-10-28T21:51:55.795Z,18.77
2022-10-28T21:54:24.544Z,18.75
2022-10-28T21:56:53.103Z,18.74
2022-10-28T21:59:21.614Z,18.73
2022-10-28T22:01:51.545Z,18.70
2022-10-28T22:04:20.063Z,18.67
2022-10-28T22:06:49.015Z,18.67
2022-10-28T22:09:17.532Z,18.66
2022-10-28T22:11:46.199Z,18.61
2022-10-28T22:14:14.543Z,18.61
2022-10-28T22:16:43.027Z,18.62
2022-10-28T22:19:16.217Z,18.59
2022-10-28T22:21:44.622Z,18.57
2022-10-28T22:24:14.375Z,18.53
2022-10-28T22:26:42.730Z,18.49
2022-10-28T22:29:11.882Z,18.47
2022-10-28T22:31:40.246Z,17.93
2022-10-28T22:34:08.938Z,17.25
2022-10-28T22:36:40.338Z,16.85
2022-10-28T22:39:08.641Z,16.63
2022-10-28T22:41:37.010Z,16.51
2022-10-28T22:44:06.199Z,16.62
2022-10-28T22:46:36.654Z,16.85
2022-10-28T22:49:06.929Z,17.07
2022-10-28T22:51:35.318Z,17.03
2022-10-28T22:54:05.838Z,16.41
2022-10-28T22:56:34.314Z,16.19
2022-10-28T22:59:03.341Z,16.02
2022-10-28T23:01:31.804Z,16.05
2022-10-28T23:04:01.022Z,16.49
2022-10-28T23:06:30.294Z,16.67
2022-10-28T23:09:01.682Z,16.58
2022-10-28T23:11:31.729Z,16.41
2022-10-28T23:14:00.028Z,16.33
2022-10-28T23:16:28.640Z,16.43
2022-10-28T23:18:57.208Z,16.76
2022-10-28T23:21:26.797Z,16.95
2022-10-28T23:23:56.624Z,17.15
2022-10-28T23:26:26.130Z,17.30
2022-10-28T23:28:57.987Z,17.30
2022-10-28T23:31:27.615Z,17.41
2022-10-28T23:33:56.329Z,17.24
2022-10-28T23:36:25.334Z,16.69
2022-10-28T23:38:53.970Z,16.49
2022-10-28T23:41:22.299Z,16.60
2022-10-28T23:43:50.955Z,16.62
2022-10-28T23:46:21.672Z,16.61
2022-10-28T23:48:50.033Z,16.62
2022-10-28T23:51:19.315Z,16.80
2022-10-28T23:53:47.765Z,17.00
2022-10-28T23:56:16.183Z,16.61
2022-10-28T23:58:44.895Z,16.41
